Terminal Aerodrome Forecast
Issued by NWS Northern Indiana

Home | Current Version | Previous Version | Text Only | Print | Product List | Glossary Off
Versions: 1 2 3 4 5 6 7 8 9 10 11 12 13 14 15

000
FTUS43 KIWX 302300
TAFFWA
TAF
KFWA 302335Z 0100/0124 34009KT P6SM OVC025
     FM010700 VRB03KT 4SM BR BKN015
     FM011500 09005KT P6SM SCT015=

USA.gov is the U.S. government's official web portal to all federal, state and local government web resources and services.